createdAt,value
2018-01-21T00:00:37.162Z,25.93
2018-01-21T00:03:05.420Z,28.80
2018-01-21T00:05:34.787Z,27.33
2018-01-21T00:08:03.023Z,25.00
2018-01-21T00:10:31.241Z,28.93
2018-01-21T00:12:59.468Z,25.50
2018-01-21T00:15:27.713Z,25.50
2018-01-21T00:17:55.933Z,27.90
2018-01-21T00:20:24.159Z,26.20
2018-01-21T00:22:53.170Z,26.50
2018-01-21T00:25:21.424Z,24.00
2018-01-21T00:27:49.677Z,25.73
2018-01-21T00:30:17.945Z,28.00
2018-01-21T00:32:46.237Z,25.43
2018-01-21T00:35:15.330Z,27.83
2018-01-21T00:37:43.563Z,24.40
2018-01-21T00:40:11.821Z,24.33
2018-01-21T00:42:40.061Z,23.60
2018-01-21T00:45:09.119Z,22.57
2018-01-21T00:47:37.337Z,23.33
2018-01-21T00:50:06.573Z,23.27
2018-01-21T00:52:34.788Z,23.20
2018-01-21T00:55:03.835Z,23.67
2018-01-21T00:57:32.077Z,29.20
2018-01-21T01:00:00.360Z,30.40
2018-01-21T01:02:29.357Z,30.60
2018-01-21T01:04:58.360Z,32.53
2018-01-21T01:07:26.600Z,29.97
2018-01-21T01:09:54.927Z,38.10
2018-01-21T01:12:23.187Z,32.47
2018-01-21T01:14:52.168Z,30.83
2018-01-21T01:17:20.510Z,28.07
2018-01-21T01:19:48.811Z,25.73
2018-01-21T01:22:17.827Z,31.03
2018-01-21T01:24:46.056Z,27.30
2018-01-21T01:27:14.303Z,28.53
2018-01-21T01:29:42.570Z,27.30
2018-01-21T01:32:10.824Z,24.67
2018-01-21T01:34:39.084Z,25.10
2018-01-21T01:37:07.320Z,22.07
2018-01-21T01:39:35.568Z,25.00
2018-01-21T01:42:03.785Z,25.13
2018-01-21T01:44:32.025Z,27.93
2018-01-21T01:47:00.257Z,26.73
2018-01-21T01:49:28.507Z,23.80
2018-01-21T01:51:56.744Z,23.63
2018-01-21T01:54:24.978Z,24.77
2018-01-21T01:56:53.985Z,23.13
2018-01-21T01:59:22.988Z,26.03
2018-01-21T02:01:52.060Z,26.00
2018-01-21T02:04:21.600Z,28.27
2018-01-21T02:06:49.883Z,28.03
2018-01-21T02:09:18.116Z,27.50
2018-01-21T02:11:47.096Z,29.50
2018-01-21T02:14:16.083Z,29.03
2018-01-21T02:16:44.422Z,29.87
2018-01-21T02:19:12.680Z,32.37
2018-01-21T02:21:40.931Z,30.70
2018-01-21T02:24:09.409Z,28.40
2018-01-21T02:26:38.401Z,37.80
2018-01-21T02:29:07.394Z,32.10
2018-01-21T02:31:36.389Z,31.10
2018-01-21T02:34:04.680Z,31.53
2018-01-21T02:36:32.982Z,34.73
2018-01-21T02:39:01.270Z,31.97
2018-01-21T02:41:29.560Z,32.77
2018-01-21T02:43:58.564Z,36.63
2018-01-21T02:46:26.796Z,32.93
2018-01-21T02:48:55.025Z,32.70
2018-01-21T02:51:24.035Z,30.03
2018-01-21T02:53:52.505Z,35.87
2018-01-21T02:56:21.490Z,31.80
2018-01-21T02:58:50.490Z,31.20
2018-01-21T03:01:18.721Z,31.57
2018-01-21T03:03:46.980Z,33.23
2018-01-21T03:06:15.203Z,30.00
2018-01-21T03:08:44.225Z,34.67
2018-01-21T03:11:12.498Z,33.20
2018-01-21T03:13:40.738Z,34.27
2018-01-21T03:16:08.985Z,36.77
2018-01-21T03:18:37.248Z,36.20
2018-01-21T03:21:05.513Z,36.00
2018-01-21T03:23:33.796Z,31.70
2018-01-21T03:26:02.789Z,34.90
2018-01-21T03:28:31.013Z,38.07
2018-01-21T03:31:00.085Z,38.77
2018-01-21T03:33:28.333Z,35.60
2018-01-21T03:35:56.571Z,37.63
2018-01-21T03:38:24.826Z,35.40
2018-01-21T03:40:53.136Z,39.50
2018-01-21T03:43:21.373Z,35.40
2018-01-21T03:45:49.882Z,35.47
2018-01-21T03:48:18.121Z,35.53
2018-01-21T03:50:46.556Z,36.10
2018-01-21T03:53:14.758Z,36.03
2018-01-21T03:55:43.013Z,37.53
2018-01-21T03:58:11.285Z,33.63
2018-01-21T04:00:39.518Z,33.37
2018-01-21T04:03:07.779Z,32.77
2018-01-21T04:05:36.019Z,35.27
2018-01-21T04:08:04.233Z,34.30
2018-01-21T04:10:32.449Z,39.03
2018-01-21T04:13:00.752Z,34.90
2018-01-21T04:15:28.977Z,32.03
2018-01-21T04:17:57.722Z,31.97
2018-01-21T04:20:25.953Z,32.20
2018-01-21T04:22:54.185Z,32.50
2018-01-21T04:25:22.430Z,32.20
2018-01-21T04:27:50.790Z,31.97
2018-01-21T04:30:19.005Z,33.67
2018-01-21T04:32:47.223Z,32.60
2018-01-21T04:35:15.695Z,33.80
2018-01-21T04:37:44.693Z,37.00
2018-01-21T04:40:12.990Z,35.60
2018-01-21T04:42:41.225Z,35.13
2018-01-21T04:45:10.226Z,36.83
2018-01-21T04:47:38.452Z,35.27
2018-01-21T04:50:06.697Z,31.73
2018-01-21T04:52:34.950Z,36.90
2018-01-21T04:55:03.990Z,38.13
2018-01-21T04:57:32.242Z,34.60
2018-01-21T05:00:00.805Z,36.37
2018-01-21T05:02:29.790Z,38.30
2018-01-21T05:04:58.053Z,33.40
2018-01-21T05:07:26.290Z,33.10
2018-01-21T05:09:54.626Z,35.57
2018-01-21T05:12:22.897Z,32.37
2018-01-21T05:14:51.116Z,32.20
2018-01-21T05:17:19.388Z,32.70
2018-01-21T05:19:47.631Z,37.10
2018-01-21T05:22:15.929Z,38.33
2018-01-21T05:24:44.156Z,34.50
2018-01-21T05:27:12.419Z,32.70
2018-01-21T05:29:40.746Z,37.00
2018-01-21T05:32:08.964Z,40.80
2018-01-21T05:34:38.704Z,38.00
2018-01-21T05:37:06.953Z,32.53
2018-01-21T05:39:35.965Z,31.43
2018-01-21T05:42:04.966Z,34.00
2018-01-21T05:44:33.969Z,34.37
2018-01-21T05:47:02.237Z,36.63
2018-01-21T05:49:31.243Z,31.27
2018-01-21T05:51:59.510Z,34.43
2018-01-21T05:54:28.212Z,32.07
2018-01-21T05:56:56.449Z,32.17
2018-01-21T05:59:25.462Z,35.90
2018-01-21T06:01:53.747Z,34.47
2018-01-21T06:04:22.754Z,37.27
2018-01-21T06:06:51.013Z,35.40
2018-01-21T06:09:19.284Z,37.87
2018-01-21T06:11:47.528Z,35.87
2018-01-21T06:14:15.768Z,36.03
2018-01-21T06:16:44.009Z,33.67
2018-01-21T06:19:12.245Z,32.87
2018-01-21T06:21:40.525Z,34.93
2018-01-21T06:24:08.789Z,35.00
2018-01-21T06:26:37.045Z,35.30
2018-01-21T06:29:05.588Z,35.57
2018-01-21T06:31:33.882Z,37.70
2018-01-21T06:34:02.245Z,37.50
2018-01-21T06:36:30.504Z,35.60
2018-01-21T06:38:58.761Z,35.03
2018-01-21T06:41:27.013Z,38.60
2018-01-21T06:43:55.252Z,37.23
2018-01-21T06:46:23.497Z,35.60
2018-01-21T06:48:53.103Z,37.00
2018-01-21T06:51:22.120Z,37.30
2018-01-21T06:56:48.429Z,32.27
2018-01-21T07:05:09.847Z,35.93
2018-01-21T07:07:38.098Z,38.50
2018-01-21T07:10:07.093Z,36.63
2018-01-21T07:12:35.329Z,37.40
2018-01-21T07:15:03.558Z,38.30
2018-01-21T07:17:31.797Z,37.57
2018-01-21T07:20:00.062Z,38.93
2018-01-21T07:22:29.185Z,37.50
2018-01-21T07:24:58.181Z,40.10
2018-01-21T07:27:26.439Z,33.60
2018-01-21T07:29:55.430Z,35.40
2018-01-21T07:32:24.434Z,34.40
2018-01-21T07:34:53.447Z,36.43
2018-01-21T07:37:21.669Z,33.83
2018-01-21T07:39:49.905Z,37.10
2018-01-21T07:42:18.140Z,36.67
2018-01-21T07:44:46.410Z,36.43
2018-01-21T07:47:15.434Z,36.90
2018-01-21T07:49:43.697Z,35.97
2018-01-21T07:52:33.370Z,36.67
2018-01-21T07:55:01.665Z,34.70
2018-01-21T07:57:29.937Z,35.10
2018-01-21T07:59:58.181Z,39.67
2018-01-21T08:02:26.473Z,36.97
2018-01-21T08:04:54.771Z,41.00
2018-01-21T08:07:23.116Z,39.13
2018-01-21T08:09:51.469Z,40.03
2018-01-21T08:12:19.701Z,37.47
2018-01-21T08:14:48.053Z,38.10
2018-01-21T08:17:16.349Z,39.43
2018-01-21T08:19:44.611Z,37.40
2018-01-21T08:22:12.878Z,38.90
2018-01-21T08:24:41.562Z,39.00
2018-01-21T08:27:09.830Z,40.40
2018-01-21T08:29:38.138Z,36.47
2018-01-21T08:32:06.492Z,34.70
2018-01-21T08:34:41.142Z,39.83
2018-01-21T08:37:15.958Z,33.33
2018-01-21T08:39:50.487Z,33.13
2018-01-21T08:42:27.413Z,33.23
2018-01-21T08:44:55.782Z,33.97
2018-01-21T08:47:24.018Z,31.73
2018-01-21T08:49:52.319Z,33.13
2018-01-21T08:52:20.542Z,32.10
2018-01-21T08:54:48.778Z,33.03
2018-01-21T08:57:16.997Z,32.87
2018-01-21T08:59:46.010Z,38.30
2018-01-21T09:02:14.237Z,32.40
2018-01-21T09:04:42.555Z,34.63
2018-01-21T09:07:10.800Z,35.57
2018-01-21T09:09:39.821Z,33.47
2018-01-21T09:12:08.094Z,34.57
2018-01-21T09:14:36.371Z,36.47
2018-01-21T09:17:04.638Z,38.13
2018-01-21T09:19:32.937Z,36.33
2018-01-21T09:22:01.181Z,31.50
2018-01-21T09:24:29.672Z,32.43
2018-01-21T09:26:58.736Z,37.50
2018-01-21T09:29:27.050Z,33.10
2018-01-21T09:31:55.237Z,38.70
2018-01-21T09:34:23.501Z,37.87
2018-01-21T09:36:51.781Z,36.70
2018-01-21T09:39:20.038Z,33.73
2018-01-21T09:41:48.282Z,36.10
2018-01-21T09:44:16.544Z,36.80
2018-01-21T09:46:44.766Z,33.20
2018-01-21T09:49:13.765Z,34.33
2018-01-21T09:51:42.786Z,39.57
2018-01-21T09:54:11.025Z,35.80
2018-01-21T09:56:40.056Z,39.10
2018-01-21T09:59:08.377Z,45.40
2018-01-21T10:01:37.451Z,40.30
2018-01-21T10:04:06.397Z,42.17
2018-01-21T10:06:34.661Z,49.93
2018-01-21T10:09:02.891Z,45.80
2018-01-21T10:11:31.115Z,46.27
2018-01-21T10:14:00.149Z,45.30
2018-01-21T10:16:28.397Z,44.80
2018-01-21T10:18:56.646Z,46.53
2018-01-21T10:21:24.940Z,41.70
2018-01-21T10:23:53.194Z,45.20
2018-01-21T10:26:22.194Z,43.43
2018-01-21T10:28:51.237Z,42.80
2018-01-21T10:31:19.481Z,43.47
2018-01-21T10:33:47.741Z,39.37
2018-01-21T10:36:15.983Z,42.60
2018-01-21T10:38:45.041Z,44.73
2018-01-21T10:41:13.295Z,41.97
2018-01-21T10:43:41.581Z,45.83
2018-01-21T10:46:09.883Z,44.97
2018-01-21T10:48:38.058Z,43.63
2018-01-21T10:51:06.314Z,44.60
2018-01-21T10:53:34.540Z,44.70
2018-01-21T10:56:02.841Z,43.23
2018-01-21T10:58:31.081Z,52.10
2018-01-21T11:01:02.293Z,44.47
2018-01-21T11:03:30.529Z,44.10
2018-01-21T11:05:59.564Z,50.27
2018-01-21T11:08:28.332Z,45.90
2018-01-21T11:10:56.561Z,51.53
2018-01-21T11:13:24.838Z,52.33
2018-01-21T11:15:53.071Z,50.93
2018-01-21T11:18:21.281Z,48.70
2018-01-21T11:20:49.506Z,48.57
2018-01-21T11:23:17.733Z,46.70
2018-01-21T11:25:45.974Z,50.47
2018-01-21T11:28:14.226Z,51.03
2018-01-21T11:30:42.453Z,49.33
2018-01-21T11:33:10.658Z,50.00
2018-01-21T11:35:39.656Z,46.30
2018-01-21T11:38:07.909Z,49.30
2018-01-21T11:40:36.157Z,50.93
2018-01-21T11:43:04.373Z,47.47
2018-01-21T11:45:33.385Z,49.20
2018-01-21T11:48:01.610Z,53.23
2018-01-21T11:50:29.907Z,51.10
2018-01-21T11:52:58.481Z,50.90
2018-01-21T11:55:27.485Z,51.27
2018-01-21T11:57:56.485Z,51.27
2018-01-21T12:00:25.529Z,51.60
2018-01-21T12:02:53.709Z,48.97
2018-01-21T12:05:21.984Z,54.77
2018-01-21T12:07:50.222Z,49.40
2018-01-21T12:10:18.477Z,47.37
2018-01-21T12:12:46.702Z,50.17
2018-01-21T12:15:14.942Z,54.03
2018-01-21T12:17:43.181Z,48.70
2018-01-21T12:20:11.433Z,43.50
2018-01-21T12:22:39.674Z,52.90
2018-01-21T12:25:07.891Z,48.90
2018-01-21T12:27:36.180Z,47.00
2018-01-21T12:30:05.195Z,46.77
2018-01-21T12:32:33.419Z,44.97
2018-01-21T12:35:01.651Z,52.17
2018-01-21T12:37:29.900Z,46.23
2018-01-21T12:39:58.921Z,93.93
2018-01-21T12:42:27.201Z,46.00
2018-01-21T12:44:55.814Z,49.37
2018-01-21T12:47:24.757Z,46.60
2018-01-21T12:49:53.774Z,47.10
2018-01-21T12:52:22.001Z,45.40
2018-01-21T12:54:50.342Z,45.97
2018-01-21T12:57:18.580Z,45.43
2018-01-21T12:59:46.832Z,47.93
2018-01-21T13:02:15.073Z,52.70
2018-01-21T13:04:43.305Z,51.20
2018-01-21T13:07:12.299Z,51.43
2018-01-21T13:09:40.537Z,46.50
2018-01-21T13:12:08.776Z,48.53
2018-01-21T13:14:37.017Z,46.17
2018-01-21T13:17:06.006Z,53.97
2018-01-21T13:19:35.017Z,51.70
2018-01-21T13:22:03.257Z,50.47
2018-01-21T13:24:32.284Z,51.90
2018-01-21T13:27:00.540Z,48.43
2018-01-21T13:29:29.537Z,46.07
2018-01-21T13:31:58.541Z,45.03
2018-01-21T13:34:26.781Z,44.07
2018-01-21T13:36:55.037Z,46.10
2018-01-21T13:39:23.285Z,41.03
2018-01-21T13:41:51.546Z,42.43
2018-01-21T13:44:20.113Z,42.80
2018-01-21T13:46:48.377Z,40.80
2018-01-21T13:49:16.596Z,47.70
2018-01-21T13:51:45.181Z,48.27
2018-01-21T13:54:13.405Z,47.30
2018-01-21T13:56:41.629Z,43.47
2018-01-21T13:59:09.875Z,41.03
2018-01-21T14:01:38.103Z,43.23
2018-01-21T14:04:06.343Z,43.17
2018-01-21T14:06:34.576Z,43.27
2018-01-21T14:09:02.826Z,40.33
2018-01-21T14:11:31.092Z,42.50
2018-01-21T14:13:59.341Z,42.07
2018-01-21T14:16:27.589Z,41.53
2018-01-21T14:18:55.825Z,39.20
2018-01-21T14:21:24.051Z,39.00
2018-01-21T14:23:53.045Z,44.23
2018-01-21T14:26:21.273Z,41.53
2018-01-21T14:28:49.543Z,39.53
2018-01-21T14:31:17.798Z,46.90
2018-01-21T14:33:46.034Z,41.60
2018-01-21T14:36:14.350Z,44.27
2018-01-21T14:38:43.321Z,40.13
2018-01-21T14:41:11.724Z,37.50
2018-01-21T14:43:40.053Z,42.07
2018-01-21T14:46:08.333Z,36.30
2018-01-21T14:48:37.331Z,35.90
2018-01-21T14:51:06.338Z,39.30
2018-01-21T14:53:34.616Z,38.27
2018-01-21T14:56:03.627Z,35.73
2018-01-21T14:58:31.896Z,38.40
2018-01-21T15:01:01.106Z,35.73
2018-01-21T15:03:29.394Z,36.33
2018-01-21T15:05:57.621Z,35.87
2018-01-21T15:08:25.901Z,36.60
2018-01-21T15:10:54.182Z,41.07
2018-01-21T15:13:23.256Z,38.47
2018-01-21T15:15:51.504Z,44.53
2018-01-21T15:18:19.802Z,42.50
2018-01-21T15:20:48.850Z,40.17
2018-01-21T15:23:17.100Z,43.00
2018-01-21T15:25:46.069Z,39.67
2018-01-21T15:28:15.078Z,39.30
2018-01-21T15:30:43.311Z,39.93
2018-01-21T15:33:12.362Z,38.97
2018-01-21T15:35:40.601Z,37.33
2018-01-21T15:38:09.117Z,37.60
2018-01-21T15:40:37.558Z,41.23
2018-01-21T15:43:05.930Z,42.27
2018-01-21T15:45:34.452Z,41.07
2018-01-21T15:48:02.597Z,43.97
2018-01-21T15:50:30.847Z,43.13
2018-01-21T15:52:58.893Z,43.80
2018-01-21T15:55:27.781Z,39.03
2018-01-21T15:57:56.091Z,49.93
2018-01-21T16:00:24.289Z,51.13
2018-01-21T16:02:52.724Z,46.17
2018-01-21T16:05:22.342Z,46.90
2018-01-21T16:07:50.709Z,46.40
2018-01-21T16:13:16.696Z,51.20
2018-01-21T16:15:45.173Z,52.73
2018-01-21T16:18:13.573Z,44.50
2018-01-21T16:20:41.933Z,42.53
2018-01-21T16:23:10.257Z,41.07
2018-01-21T16:25:38.512Z,44.10
2018-01-21T16:28:06.818Z,44.50
2018-01-21T16:30:35.878Z,40.50
2018-01-21T16:33:04.390Z,44.13
2018-01-21T16:35:32.636Z,42.03
2018-01-21T16:38:12.608Z,42.47
2018-01-21T16:40:40.888Z,42.27
2018-01-21T16:43:10.699Z,39.47
2018-01-21T16:45:38.984Z,43.37
2018-01-21T16:48:07.257Z,45.03
2018-01-21T16:50:35.501Z,45.50
2018-01-21T16:53:03.808Z,42.73
2018-01-21T16:55:32.921Z,46.87
2018-01-21T16:58:02.245Z,41.80
2018-01-21T17:00:30.502Z,45.37
2018-01-21T17:02:58.853Z,48.10
2018-01-21T17:05:27.377Z,56.70
2018-01-21T17:07:55.718Z,50.87
2018-01-21T17:10:24.227Z,46.80
2018-01-21T17:12:52.536Z,46.13
2018-01-21T17:15:20.834Z,46.77
2018-01-21T17:17:49.913Z,46.03
2018-01-21T17:20:18.265Z,45.23
2018-01-21T17:22:47.255Z,44.97
2018-01-21T17:25:16.294Z,42.63
2018-01-21T17:27:44.738Z,43.50
2018-01-21T17:30:15.533Z,47.60
2018-01-21T17:32:45.841Z,39.83
2018-01-21T17:35:14.118Z,44.17
2018-01-21T17:37:42.425Z,41.63
2018-01-21T17:40:11.710Z,40.37
2018-01-21T17:42:40.750Z,42.10
2018-01-21T17:45:09.226Z,42.63
2018-01-21T17:47:38.405Z,44.63
2018-01-21T17:50:06.694Z,38.87
2018-01-21T17:52:35.076Z,41.20
2018-01-21T17:55:03.629Z,43.67
2018-01-21T17:57:31.947Z,41.53
2018-01-21T18:00:00.180Z,40.63
2018-01-21T18:02:28.417Z,38.97
2018-01-21T18:04:56.674Z,40.30
2018-01-21T18:07:24.971Z,40.27
2018-01-21T18:09:53.824Z,42.03
2018-01-21T18:12:23.759Z,38.97
2018-01-21T18:14:52.194Z,38.73
2018-01-21T18:17:20.672Z,39.73
2018-01-21T18:19:48.910Z,38.00
2018-01-21T18:22:17.190Z,35.93
2018-01-21T18:24:45.457Z,34.40
2018-01-21T18:27:14.234Z,48.80
2018-01-21T18:29:42.602Z,37.97
2018-01-21T18:32:10.845Z,37.67
2018-01-21T18:34:39.880Z,37.10
2018-01-21T18:37:08.234Z,40.00
2018-01-21T18:39:36.539Z,42.67
2018-01-21T18:42:04.756Z,39.80
2018-01-21T18:44:33.025Z,43.20
2018-01-21T18:47:02.499Z,40.47
2018-01-21T18:49:30.728Z,38.50
2018-01-21T18:51:59.721Z,37.03
2018-01-21T18:54:28.034Z,45.77
2018-01-21T18:57:13.281Z,40.07
2018-01-21T18:59:41.994Z,42.60
2018-01-21T19:02:10.257Z,39.93
2018-01-21T19:04:38.564Z,41.00
2018-01-21T19:07:07.623Z,35.50
2018-01-21T19:09:36.017Z,40.50
2018-01-21T19:12:04.255Z,38.97
2018-01-21T19:14:32.488Z,45.20
2018-01-21T19:17:00.748Z,44.30
2018-01-21T19:19:29.061Z,40.63
2018-01-21T19:21:57.397Z,38.97
2018-01-21T19:24:25.597Z,38.13
2018-01-21T19:26:53.866Z,44.60
2018-01-21T19:29:22.107Z,40.60
2018-01-21T19:31:50.815Z,39.43
2018-01-21T19:34:20.082Z,36.27
2018-01-21T19:36:48.344Z,34.53
2018-01-21T19:39:22.332Z,32.63
2018-01-21T19:55:21.947Z,32.87
2018-01-21T19:57:51.083Z,32.30
2018-01-21T20:03:17.311Z,32.00
2018-01-21T20:05:46.378Z,34.33
2018-01-21T20:08:15.467Z,31.70
2018-01-21T20:10:44.485Z,28.90
2018-01-21T20:13:12.835Z,34.17
2018-01-21T20:15:41.110Z,30.37
2018-01-21T20:18:10.107Z,30.80
2018-01-21T20:20:39.114Z,28.20
2018-01-21T20:23:07.676Z,33.17
2018-01-21T20:25:35.954Z,34.60
2018-01-21T20:31:01.891Z,35.10
2018-01-21T20:33:30.183Z,31.90
2018-01-21T20:35:58.464Z,33.87
2018-01-21T20:38:26.755Z,34.50
2018-01-21T20:40:55.792Z,33.50
2018-01-21T20:43:24.224Z,31.43
2018-01-21T20:45:53.404Z,35.43
2018-01-21T20:48:22.480Z,35.47
2018-01-21T20:50:56.473Z,35.27
2018-01-21T20:53:30.508Z,39.77
2018-01-21T20:55:58.817Z,40.07
2018-01-21T20:58:27.089Z,42.60
2018-01-21T21:00:55.419Z,38.27
2018-01-21T21:03:23.675Z,39.60
2018-01-21T21:05:51.949Z,38.00
2018-01-21T21:08:20.179Z,42.10
2018-01-21T21:10:48.555Z,39.43
2018-01-21T21:13:16.881Z,40.10
2018-01-21T21:15:45.321Z,38.93
2018-01-21T21:18:13.616Z,37.20
2018-01-21T21:20:42.806Z,38.90
2018-01-21T21:23:11.077Z,36.60
2018-01-21T21:25:39.317Z,38.47
2018-01-21T21:31:07.131Z,36.97
2018-01-21T21:33:35.670Z,35.53
2018-01-21T21:36:04.209Z,35.60
2018-01-21T21:38:33.447Z,34.53
2018-01-21T21:41:01.849Z,34.20
2018-01-21T21:43:30.694Z,34.07
2018-01-21T21:45:59.461Z,32.10
2018-01-21T21:48:28.305Z,32.13
2018-01-21T21:50:56.985Z,32.80
2018-01-21T21:53:26.525Z,32.63
2018-01-21T21:55:55.303Z,29.30
2018-01-21T21:58:24.628Z,33.60
2018-01-21T22:00:53.742Z,32.17
2018-01-21T22:03:22.425Z,31.03
2018-01-21T22:05:51.191Z,34.37
2018-01-21T22:08:20.399Z,34.03
2018-01-21T22:10:48.911Z,32.20
2018-01-21T22:13:17.677Z,36.50
2018-01-21T22:15:47.249Z,35.80
2018-01-21T22:18:15.866Z,33.60
2018-01-21T22:20:45.887Z,31.97
2018-01-21T22:23:14.607Z,33.43
2018-01-21T22:25:44.072Z,36.20
2018-01-21T22:28:14.049Z,35.07
2018-01-21T22:30:43.375Z,34.87
2018-01-21T22:33:12.993Z,35.90
2018-01-21T22:35:41.552Z,36.40
2018-01-21T22:38:10.111Z,32.53
2018-01-21T22:40:39.536Z,32.00
2018-01-21T22:43:09.097Z,34.90
2018-01-21T22:45:37.495Z,34.77
2018-01-21T22:48:06.534Z,32.63
2018-01-21T22:50:34.752Z,31.10
2018-01-21T22:53:03.000Z,33.00
2018-01-21T22:55:31.274Z,28.57
2018-01-21T22:57:59.589Z,31.07
2018-01-21T23:00:27.867Z,28.50
2018-01-21T23:02:56.937Z,28.33
2018-01-21T23:05:25.965Z,28.50
2018-01-21T23:07:54.232Z,30.17
2018-01-21T23:13:20.988Z,31.00
2018-01-21T23:15:49.545Z,32.60
2018-01-21T23:18:17.841Z,30.50
2018-01-21T23:21:05.030Z,32.43
2018-01-21T23:23:33.277Z,31.23
2018-01-21T23:26:01.530Z,32.23
2018-01-21T23:28:29.844Z,31.90
2018-01-21T23:30:58.100Z,29.87
2018-01-21T23:33:27.171Z,28.60
2018-01-21T23:35:55.450Z,31.47
2018-01-21T23:38:23.685Z,29.20
2018-01-21T23:40:52.776Z,29.13
2018-01-21T23:43:21.062Z,28.23
2018-01-21T23:45:49.383Z,29.90
2018-01-21T23:48:17.599Z,33.63
2018-01-21T23:50:45.948Z,32.47
2018-01-21T23:53:14.185Z,28.83
2018-01-21T23:55:42.447Z,28.17
2018-01-21T23:58:10.793Z,29.13
